Аэропорт: Николаев. Николаев

ICAO: UKON

METAR:
2018/11/19 10:05
UKON 191005Z 09007MPS 9999 -SHRA BKN005 BKN///CB 03/M01 Q1021 R04/090062 NOSIG
METAR:
2018/11/06 15:06
TAF 
      AMD TAF 
      AMD UKON 061502Z 0615/0724 CNL